Time;durP1;ratioP1;P1;durP2;ratioP2;P2;SDS_P1;SDS_P2;PMS_P1;PMS_P2;Temp;Humidity;BMP_temperature;BMP_pressure;BME280_temperature;BME280_humidity;BME280_pressure;Samples;Min_cycle;Max_cycle;Signal;HPM_P1;HPM_P2
2022/03/03 00:00:15;;;;;;;16.70;7.70;;;;;-1.00;97232.80;;;;110706;1251;42364;-69
2022/03/03 00:03:05;;;;;;;15.80;6.70;;;;;-1.04;97233.20;;;;110608;1250;41389;-68
2022/03/03 00:05:35;;;;;;;14.60;6.40;;;;;-1.10;97226.20;;;;110798;1250;42600;-69
2022/03/03 00:08:04;;;;;;;14.70;6.70;;;;;-1.10;97227.00;;;;110733;1253;41151;-69
2022/03/03 00:10:34;;;;;;;15.20;7.00;;;;;-1.10;97224.60;;;;110766;1251;41451;-69
2022/03/03 00:13:03;;;;;;;14.70;7.10;;;;;-1.14;97220.40;;;;110705;1253;41594;-69
2022/03/03 00:15:34;;;;;;;17.40;7.90;;;;;-1.20;97223.40;;;;110614;1253;41278;-69
2022/03/03 00:18:04;;;;;;;16.60;7.30;;;;;-1.30;97217.60;;;;110803;1251;41152;-68
2022/03/03 00:20:33;;;;;;;16.00;6.70;;;;;-1.30;97220.00;;;;110574;1251;41872;-68
2022/03/03 00:23:04;;;;;;;14.30;6.80;;;;;-1.38;97220.40;;;;110727;1251;42526;-69
2022/03/03 00:25:35;;;;;;;16.00;7.90;;;;;-1.40;97221.40;;;;110660;1253;41169;-67
2022/03/03 00:28:06;;;;;;;19.10;8.00;;;;;-1.40;97221.00;;;;110774;1251;41162;-69
2022/03/03 00:30:36;;;;;;;18.50;7.00;;;;;-1.50;97216.00;;;;110536;1251;41203;-67
2022/03/03 00:33:06;;;;;;;18.70;7.70;;;;;-1.50;97218.80;;;;110605;1253;41159;-69
2022/03/03 00:35:37;;;;;;;16.20;8.20;;;;;-1.50;97218.60;;;;110753;1248;42731;-69
2022/03/03 00:38:09;;;;;;;20.20;8.70;;;;;-1.50;97224.60;;;;110616;1251;41199;-68
2022/03/03 00:40:38;;;;;;;;;;;;;-1.60;97227.80;;;;110683;1251;41329;-68
2022/03/03 00:43:09;;;;;;;18.70;8.60;;;;;-1.60;97232.00;;;;110929;1251;41159;-68
2022/03/03 00:45:39;;;;;;;20.10;10.00;;;;;-1.60;97223.60;;;;110555;1253;41171;-68
2022/03/03 00:48:10;;;;;;;21.90;9.50;;;;;-1.60;97225.60;;;;110587;1251;41728;-68
2022/03/03 00:50:39;;;;;;;20.10;9.60;;;;;-1.60;97221.40;;;;110479;1253;41441;-67
2022/03/03 00:53:09;;;;;;;19.50;9.00;;;;;-1.62;97229.40;;;;110511;1251;41722;-67
2022/03/03 00:55:39;;;;;;;18.60;8.60;;;;;-1.64;97230.80;;;;110490;1251;42400;-67
2022/03/03 00:58:09;;;;;;;19.40;9.40;;;;;-1.68;97227.60;;;;110695;1251;41279;-67
2022/03/03 01:00:40;;;;;;;19.40;9.20;;;;;-1.62;97222.80;;;;110611;1253;41780;-68
2022/03/03 01:03:10;;;;;;;19.70;9.40;;;;;-1.60;97219.40;;;;110529;1250;41159;-68
2022/03/03 01:05:40;;;;;;;20.30;9.60;;;;;-1.60;97218.40;;;;110520;1252;41807;-68
2022/03/03 01:08:10;;;;;;;22.00;8.70;;;;;-1.60;97217.20;;;;110564;1252;42198;-67
2022/03/03 01:10:41;;;;;;;19.60;9.20;;;;;-1.54;97217.80;;;;110940;1250;41263;-68
2022/03/03 01:13:10;;;;;;;20.20;9.30;;;;;-1.50;97223.60;;;;110852;1250;41801;-67
2022/03/03 01:15:40;;;;;;;18.90;8.70;;;;;-1.50;97218.00;;;;110807;1251;41152;-67
2022/03/03 01:18:10;;;;;;;20.00;9.50;;;;;-1.46;97213.80;;;;110939;1249;41466;-68
2022/03/03 01:20:41;;;;;;;18.10;9.10;;;;;-1.50;97219.60;;;;110775;1250;42019;-68
2022/03/03 01:23:12;;;;;;;22.60;8.20;;;;;-1.50;97219.20;;;;110660;1251;41153;-68
2022/03/03 01:25:41;;;;;;;19.20;8.50;;;;;-1.50;97219.40;;;;110519;1251;41263;-68
2022/03/03 01:28:12;;;;;;;16.70;7.50;;;;;-1.50;97217.60;;;;110595;1251;41826;-67
2022/03/03 01:30:42;;;;;;;19.90;7.40;;;;;-1.50;97210.20;;;;110620;1250;42185;-69
2022/03/03 01:33:14;;;;;;;17.00;7.30;;;;;-1.50;97210.00;;;;110523;1251;41154;-68
2022/03/03 01:35:44;;;;;;;16.80;7.80;;;;;-1.40;97213.00;;;;110725;1250;41651;-67
2022/03/03 01:38:14;;;;;;;17.00;8.10;;;;;-1.40;97211.80;;;;110779;1251;42380;-68
2022/03/03 01:40:43;;;;;;;14.60;7.30;;;;;-1.40;97209.40;;;;110651;1249;41152;-68
2022/03/03 01:43:14;;;;;;;16.40;7.60;;;;;-1.40;97211.20;;;;110578;1252;41667;-68
2022/03/03 01:45:45;;;;;;;15.10;7.50;;;;;-1.30;97216.20;;;;110948;1250;41365;-66
2022/03/03 01:48:14;;;;;;;16.30;7.50;;;;;-1.30;97214.00;;;;110753;1249;41130;-68
2022/03/03 01:50:45;;;;;;;19.20;8.00;;;;;-1.30;97215.00;;;;110684;1251;41941;-67
2022/03/03 01:53:16;;;;;;;19.10;7.30;;;;;-1.28;97214.20;;;;110814;1249;41286;-67
2022/03/03 01:55:48;;;;;;;16.30;7.70;;;;;-1.20;97210.80;;;;110967;1250;41589;-69
2022/03/03 01:58:18;;;;;;;18.60;8.20;;;;;-1.20;97207.40;;;;110763;1250;41279;-68
2022/03/03 02:00:51;;;;;;;14.80;6.70;;;;;-1.10;97206.20;;;;111062;1247;41611;-68
2022/03/03 02:03:22;;;;;;;13.70;6.70;;;;;-1.10;97205.00;;;;110807;1250;41616;-68
2022/03/03 02:05:52;;;;;;;15.30;6.80;;;;;-1.08;97201.20;;;;110794;1251;41148;-68
2022/03/03 02:08:23;;;;;;;15.40;7.10;;;;;-1.00;97201.80;;;;110575;1251;41648;-68
2022/03/03 02:10:54;;;;;;;15.30;6.90;;;;;-1.00;97202.20;;;;110597;1251;41262;-68
2022/03/03 02:13:24;;;;;;;15.20;7.10;;;;;-1.00;97205.60;;;;110585;1253;41689;-68
2022/03/03 02:15:55;;;;;;;14.90;6.80;;;;;-0.92;97201.00;;;;110336;1250;41268;-65
2022/03/03 02:18:25;;;;;;;16.10;7.70;;;;;-0.90;97207.20;;;;110457;1253;41389;-67
2022/03/03 02:20:57;;;;;;;16.80;7.20;;;;;-0.90;97202.00;;;;110520;1252;41169;-68
2022/03/03 02:23:28;;;;;;;16.30;7.60;;;;;-0.90;97203.60;;;;110583;1250;41267;-67
2022/03/03 02:26:00;;;;;;;18.10;7.80;;;;;-0.90;97199.40;;;;110828;1250;41592;-66
2022/03/03 02:28:31;;;;;;;17.60;8.40;;;;;-0.92;97203.20;;;;110744;1251;41650;-68
2022/03/03 02:31:03;;;;;;;16.10;7.90;;;;;-0.96;97198.80;;;;110658;1251;41716;-68
2022/03/03 02:33:34;;;;;;;16.40;7.60;;;;;-1.00;97196.20;;;;110640;1253;41352;-68
2022/03/03 02:36:17;;;;;;;16.30;7.70;;;;;-0.94;97193.40;;;;110732;1250;42099;-69
2022/03/03 02:38:51;;;;;;;17.80;8.40;;;;;-1.00;97194.60;;;;110673;1249;41253;-68
2022/03/03 02:41:22;;;;;;;24.20;9.60;;;;;-1.00;97195.40;;;;110648;1250;41128;-67
2022/03/03 02:43:53;;;;;;;19.00;8.60;;;;;-1.06;97198.20;;;;110439;1250;373630;-67
2022/03/03 02:46:23;;;;;;;19.60;8.90;;;;;-1.10;97194.60;;;;110851;1251;41975;-68
2022/03/03 02:48:55;;;;;;;26.10;9.50;;;;;-1.20;97191.20;;;;110804;1250;41442;-67
2022/03/03 02:51:26;;;;;;;22.10;8.70;;;;;-1.20;97191.60;;;;110613;1252;41253;-67
2022/03/03 02:53:56;;;;;;;22.40;9.10;;;;;-1.20;97191.40;;;;110669;1252;41255;-68
2022/03/03 02:56:26;;;;;;;19.60;8.80;;;;;-1.20;97190.20;;;;110835;1250;41351;-69
2022/03/03 02:58:58;;;;;;;19.90;8.70;;;;;-1.20;97192.20;;;;110850;1251;41710;-68
2022/03/03 03:01:30;;;;;;;17.30;8.00;;;;;-1.20;97193.20;;;;110552;1251;41265;-67
2022/03/03 03:04:02;;;;;;;19.50;7.90;;;;;-1.20;97189.80;;;;110532;1251;41920;-66
2022/03/03 03:06:35;;;;;;;14.30;7.30;;;;;-1.14;97192.20;;;;110598;1252;41150;-68
2022/03/03 03:09:05;;;;;;;16.70;7.30;;;;;-1.10;97184.00;;;;110614;1251;41137;-67
2022/03/03 03:11:35;;;;;;;18.30;6.80;;;;;-1.10;97185.60;;;;110788;1250;41523;-67
2022/03/03 03:14:05;;;;;;;19.00;8.30;;;;;-1.10;97184.80;;;;110818;1251;41158;-67
2022/03/03 03:16:35;;;;;;;19.30;8.30;;;;;-1.10;97179.80;;;;110636;1250;41156;-67
2022/03/03 03:19:05;;;;;;;19.60;7.60;;;;;-1.10;97172.60;;;;110808;1250;41266;-66
2022/03/03 03:21:35;;;;;;;17.60;7.90;;;;;-1.10;97177.80;;;;110735;1250;41162;-68
2022/03/03 03:24:05;;;;;;;16.40;8.00;;;;;-1.10;97177.40;;;;110988;1250;41159;-69
2022/03/03 03:26:35;;;;;;;18.20;8.10;;;;;-1.10;97177.00;;;;110697;1251;41273;-69
2022/03/03 03:29:05;;;;;;;18.60;8.30;;;;;-1.10;97177.40;;;;110615;1250;41179;-68
2022/03/03 03:31:35;;;;;;;14.40;7.50;;;;;-1.10;97174.00;;;;110898;1250;41371;-68
2022/03/03 03:34:05;;;;;;;18.80;8.80;;;;;-1.10;97174.60;;;;110780;1250;41613;-68
2022/03/03 03:36:35;;;;;;;19.90;9.50;;;;;-1.10;97177.80;;;;110773;1250;41505;-67
2022/03/03 03:39:05;;;;;;;25.10;9.70;;;;;-1.20;97174.80;;;;110632;1250;42547;-66
2022/03/03 03:41:37;;;;;;;21.00;9.00;;;;;-1.30;97170.20;;;;110592;1252;41145;-67
2022/03/03 03:44:06;;;;;;;17.80;8.40;;;;;-1.36;97174.80;;;;110813;1251;41578;-67
2022/03/03 03:46:37;;;;;;;23.10;9.90;;;;;-1.40;97167.00;;;;110940;1250;41533;-67
2022/03/03 03:49:07;;;;;;;21.60;10.30;;;;;-1.40;97171.20;;;;110760;1250;41164;-68
2022/03/03 03:51:39;;;;;;;19.30;8.90;;;;;-1.40;97176.20;;;;110726;1250;41904;-68
2022/03/03 03:54:10;;;;;;;19.70;8.80;;;;;-1.40;97176.00;;;;110845;1249;41134;-67
2022/03/03 03:56:39;;;;;;;23.00;9.70;;;;;-1.44;97179.00;;;;110849;1250;41147;-67
2022/03/03 03:59:10;;;;;;;20.10;9.80;;;;;-1.50;97184.40;;;;110815;1249;42588;-65
2022/03/03 04:01:40;;;;;;;19.10;8.90;;;;;-1.50;97183.80;;;;110772;1250;41140;-67
2022/03/03 04:04:11;;;;;;;19.10;8.60;;;;;-1.50;97186.80;;;;110869;1250;42308;-67
2022/03/03 04:06:41;;;;;;;19.90;8.10;;;;;-1.50;97183.80;;;;110687;1253;41224;-69
2022/03/03 04:09:11;;;;;;;17.80;9.00;;;;;-1.50;97183.60;;;;110643;1253;41321;-67
2022/03/03 04:11:41;;;;;;;18.20;8.20;;;;;-1.50;97185.00;;;;110808;1251;41131;-67
2022/03/03 04:14:10;;;;;;;16.10;7.40;;;;;-1.52;97183.60;;;;110825;1250;41617;-67
2022/03/03 04:16:41;;;;;;;17.90;8.40;;;;;-1.60;97186.20;;;;110711;1249;42105;-67
2022/03/03 04:19:12;;;;;;;17.80;8.50;;;;;-1.60;97192.60;;;;110697;1250;41614;-68
2022/03/03 04:21:42;;;;;;;16.00;8.20;;;;;-1.60;97193.80;;;;110825;1250;41158;-68
2022/03/03 04:24:12;;;;;;;14.70;7.30;;;;;-1.60;97194.40;;;;110772;1250;41145;-69
2022/03/03 04:26:42;;;;;;;14.20;7.20;;;;;-1.60;97194.00;;;;110588;1250;41208;-68
2022/03/03 04:29:12;;;;;;;17.30;7.90;;;;;-1.70;97192.40;;;;110661;1252;41136;-68
2022/03/03 04:31:42;;;;;;;18.40;8.00;;;;;-1.70;97192.60;;;;110799;1250;41182;-66
2022/03/03 04:34:11;;;;;;;18.40;7.50;;;;;-1.70;97195.60;;;;110613;1250;41609;-67
2022/03/03 04:36:41;;;;;;;17.90;8.70;;;;;-1.70;97192.40;;;;110742;1250;41457;-68
2022/03/03 04:39:11;;;;;;;17.80;7.90;;;;;-1.78;97200.60;;;;110597;1251;41965;-67
2022/03/03 04:41:40;;;;;;;18.00;8.10;;;;;-1.80;97201.40;;;;110830;1250;41425;-67
2022/03/03 04:44:11;;;;;;;14.90;6.80;;;;;-1.80;97200.60;;;;110611;1252;41190;-67
2022/03/03 04:46:41;;;;;;;15.40;7.20;;;;;-1.80;97202.40;;;;110876;1250;41265;-67
2022/03/03 04:49:11;;;;;;;15.30;6.50;;;;;-1.90;97206.20;;;;110799;1251;41955;-67
2022/03/03 04:51:42;;;;;;;13.90;6.40;;;;;-1.90;97199.00;;;;110738;1250;41248;-66
2022/03/03 04:54:13;;;;;;;;;;;;;-1.88;97201.40;;;;110746;1250;41647;-67
2022/03/03 04:56:42;;;;;;;16.60;6.70;;;;;-1.86;97201.40;;;;110747;1250;41504;-67
2022/03/03 04:59:12;;;;;;;18.30;8.20;;;;;-1.84;97202.20;;;;110764;1251;41136;-67
2022/03/03 05:01:41;;;;;;;17.20;8.90;;;;;-1.84;97194.40;;;;110951;1250;41661;-68
2022/03/03 05:04:12;;;;;;;24.10;10.10;;;;;-1.86;97189.40;;;;111057;1250;41155;-67
2022/03/03 05:06:46;;;;;;;19.80;9.50;;;;;-1.80;97194.60;;;;110976;1250;41606;-67
2022/03/03 05:09:16;;;;;;;21.30;9.40;;;;;-1.80;97194.00;;;;110860;1250;42303;-67
2022/03/03 05:11:45;;;;;;;14.80;7.50;;;;;-1.80;97191.40;;;;110617;1251;41733;-69
2022/03/03 05:14:15;;;;;;;16.10;7.40;;;;;-1.80;97196.60;;;;110693;1251;41695;-67
2022/03/03 05:16:45;;;;;;;18.10;8.40;;;;;-1.70;97192.60;;;;110780;1250;41165;-68
2022/03/03 05:19:15;;;;;;;16.30;8.30;;;;;-1.70;97191.00;;;;110802;1251;41274;-67
2022/03/03 05:21:44;;;;;;;17.40;7.30;;;;;-1.68;97190.40;;;;110640;1250;41929;-66
2022/03/03 05:24:13;;;;;;;13.20;6.90;;;;;-1.60;97191.60;;;;110661;1250;41159;-67
2022/03/03 05:26:43;;;;;;;15.30;7.30;;;;;-1.50;97192.60;;;;110830;1250;41140;-66
2022/03/03 05:29:14;;;;;;;18.00;6.70;;;;;-1.40;97194.40;;;;110873;1249;41746;-68
2022/03/03 05:31:44;;;;;;;13.50;5.90;;;;;-1.30;97190.60;;;;110595;1250;41270;-67
2022/03/03 05:34:14;;;;;;;12.30;5.70;;;;;-1.24;97190.20;;;;110697;1250;41171;-67
2022/03/03 05:36:44;;;;;;;18.60;5.80;;;;;-1.20;97195.80;;;;110841;1250;41141;-68
2022/03/03 05:39:14;;;;;;;14.90;6.30;;;;;-1.10;97198.00;;;;110784;1251;41445;-67
2022/03/03 05:41:44;;;;;;;16.90;7.50;;;;;-1.10;97196.40;;;;110692;1250;41175;-68
2022/03/03 05:44:14;;;;;;;19.20;8.30;;;;;-1.10;97196.80;;;;110785;1251;41987;-67
2022/03/03 05:46:44;;;;;;;20.10;9.20;;;;;-1.10;97187.60;;;;110755;1250;41485;-69
2022/03/03 05:49:16;;;;;;;25.50;9.10;;;;;-1.10;97185.20;;;;110862;1249;41154;-68
2022/03/03 05:51:46;;;;;;;23.80;9.10;;;;;-1.10;97180.40;;;;110892;1250;41197;-67
2022/03/03 05:54:16;;;;;;;19.50;8.50;;;;;-1.10;97182.60;;;;110776;1249;42205;-66
2022/03/03 05:56:46;;;;;;;18.10;8.30;;;;;-1.00;97181.80;;;;110525;1250;41139;-66
2022/03/03 05:59:16;;;;;;;19.80;8.00;;;;;-1.00;97185.40;;;;110576;1251;41254;-66
2022/03/03 06:01:46;;;;;;;16.50;7.20;;;;;-0.90;97187.60;;;;110593;1251;41289;-69
2022/03/03 06:04:17;;;;;;;19.70;8.60;;;;;-0.80;97179.80;;;;110802;1250;41255;-68
2022/03/03 06:06:56;;;;;;;16.80;7.70;;;;;-0.70;97180.00;;;;110832;1250;41147;-68
2022/03/03 06:09:31;;;;;;;15.80;7.40;;;;;-0.62;97182.40;;;;111017;1250;41160;-68
2022/03/03 06:12:03;;;;;;;16.30;7.50;;;;;-0.54;97179.00;;;;110806;1250;41106;-68
2022/03/03 06:14:53;;;;;;;13.60;6.70;;;;;-0.48;97182.00;;;;111105;1250;42375;-67
2022/03/03 06:17:24;;;;;;;14.10;6.50;;;;;-0.34;97173.40;;;;110777;1250;42050;-68
2022/03/03 06:19:54;;;;;;;22.10;9.80;;;;;-0.20;97176.40;;;;111101;1250;41198;-68
2022/03/03 06:22:23;;;;;;;20.20;9.00;;;;;-0.28;97176.40;;;;110952;1250;42383;-67
2022/03/03 06:24:53;;;;;;;16.30;7.80;;;;;-0.20;97170.40;;;;110778;1250;41136;-66
2022/03/03 06:27:27;;;;;;;17.30;8.40;;;;;-0.10;97175.80;;;;110786;1250;41184;-67
2022/03/03 06:29:57;;;;;;;17.50;7.60;;;;;-0.02;97174.80;;;;110648;1250;41967;-65
2022/03/03 06:32:28;;;;;;;15.00;6.90;;;;;0.00;97172.00;;;;110823;1248;42414;-68
2022/03/03 06:34:58;;;;;;;18.00;8.10;;;;;0.20;97169.60;;;;110803;1250;41783;-68
2022/03/03 06:37:28;;;;;;;20.00;8.70;;;;;0.30;97170.20;;;;110776;1250;41263;-69
2022/03/03 06:39:59;;;;;;;18.20;8.50;;;;;0.50;97168.60;;;;110915;1250;41910;-69
2022/03/03 06:42:30;;;;;;;21.00;9.50;;;;;0.58;97162.40;;;;110988;1251;41156;-71
2022/03/03 06:44:59;;;;;;;18.00;8.40;;;;;0.68;97165.00;;;;110775;1250;41146;-66
2022/03/03 06:47:31;;;;;;;19.50;8.80;;;;;0.80;97167.40;;;;110785;1249;41885;-68
2022/03/03 06:50:02;;;;;;;17.50;7.50;;;;;0.70;97165.80;;;;110546;1251;41283;-67
2022/03/03 06:52:33;;;;;;;13.20;6.20;;;;;0.86;97166.00;;;;110933;1248;41880;-67
2022/03/03 06:55:02;;;;;;;15.60;7.10;;;;;1.00;97171.40;;;;110784;1250;41945;-65
2022/03/03 06:57:35;;;;;;;13.40;6.30;;;;;0.90;97176.40;;;;110563;1251;41255;-66
2022/03/03 07:00:06;;;;;;;20.70;8.40;;;;;1.10;97178.80;;;;110680;1251;41172;-64
2022/03/03 07:02:37;;;;;;;17.90;8.40;;;;;0.80;97182.80;;;;110589;1252;41277;-66
2022/03/03 07:05:07;;;;;;;16.80;6.70;;;;;0.80;97182.00;;;;110824;1250;42413;-68
2022/03/03 07:07:37;;;;;;;19.60;7.00;;;;;0.90;97179.40;;;;110835;1250;41888;-68
2022/03/03 07:10:08;;;;;;;17.60;7.80;;;;;0.88;97182.40;;;;110942;1250;41136;-64
2022/03/03 07:12:38;;;;;;;23.50;8.40;;;;;0.88;97187.60;;;;110802;1250;41278;-66
2022/03/03 07:15:09;;;;;;;17.50;8.20;;;;;0.70;97188.40;;;;110566;1250;41150;-66
2022/03/03 07:17:45;;;;;;;22.10;9.30;;;;;0.70;97189.00;;;;110618;1251;41389;-67
2022/03/03 07:20:28;;;;;;;18.30;7.20;;;;;0.56;97186.00;;;;110894;1248;41141;-68
2022/03/03 07:23:30;;;;;;;14.70;6.50;;;;;0.80;97188.20;;;;110760;1250;41839;-64
2022/03/03 07:26:09;;;;;;;17.90;8.50;;;;;1.00;97184.00;;;;110842;1249;41139;-67
2022/03/03 07:28:40;;;;;;;16.20;7.30;;;;;1.00;97184.80;;;;110920;1250;41801;-67
2022/03/03 07:31:11;;;;;;;17.10;7.20;;;;;1.00;97179.40;;;;110808;1251;41150;-65
2022/03/03 07:33:40;;;;;;;;;;;;;0.90;97180.80;;;;110981;1250;41630;-66
2022/03/03 07:36:22;;;;;;;13.90;6.30;;;;;0.98;97181.60;;;;110873;1250;42112;-66
2022/03/03 07:38:58;;;;;;;13.30;6.10;;;;;1.18;97180.40;;;;110601;1250;41261;-66
2022/03/03 07:41:29;;;;;;;12.10;5.40;;;;;1.36;97177.60;;;;110717;1249;41944;-68
2022/03/03 07:44:00;;;;;;;13.60;5.50;;;;;1.58;97172.20;;;;110652;1251;42361;-68
2022/03/03 07:46:29;;;;;;;15.70;5.60;;;;;1.80;97174.60;;;;110624;1250;41160;-65
2022/03/03 07:49:01;;;;;;;14.70;5.50;;;;;1.90;97175.00;;;;110756;1251;41534;-66
2022/03/03 07:51:30;;;;;;;12.40;5.10;;;;;2.20;97170.20;;;;110756;1250;41152;-66
2022/03/03 07:54:00;;;;;;;11.70;5.10;;;;;2.50;97175.20;;;;110624;1251;41218;-66
2022/03/03 07:56:40;;;;;;;11.40;4.90;;;;;2.76;97176.60;;;;110920;1250;41179;-66
2022/03/03 07:59:12;;;;;;;11.90;5.10;;;;;3.10;97175.80;;;;110720;1250;41134;-68
2022/03/03 08:01:44;;;;;;;14.10;5.30;;;;;3.46;97168.40;;;;110885;1250;42455;-67
2022/03/03 08:04:15;;;;;;;11.90;5.60;;;;;3.68;97172.00;;;;110695;1250;41140;-66
2022/03/03 08:06:45;;;;;;;12.10;4.60;;;;;3.90;97170.40;;;;110840;1249;41558;-67
2022/03/03 08:09:16;;;;;;;14.70;6.20;;;;;4.22;97168.40;;;;110812;1250;41270;-66
2022/03/03 08:11:46;;;;;;;16.80;6.70;;;;;3.66;97174.20;;;;110801;1250;41651;-69
2022/03/03 08:14:16;;;;;;;13.00;5.50;;;;;4.12;97165.20;;;;110777;1250;41605;-69
2022/03/03 08:16:46;;;;;;;;;;;;;4.54;97158.60;;;;110961;1250;41183;-67
2022/03/03 08:19:17;;;;;;;13.30;5.40;;;;;4.96;97157.40;;;;110668;1252;41803;-69
2022/03/03 08:21:49;;;;;;;15.00;6.10;;;;;5.30;97154.60;;;;110513;1250;42009;-67
2022/03/03 08:24:21;;;;;;;13.60;5.60;;;;;5.60;97144.00;;;;110693;1248;41618;-68
2022/03/03 08:26:54;;;;;;;10.50;5.20;;;;;6.02;97146.20;;;;110631;1250;41415;-69
2022/03/03 08:29:24;;;;;;;12.20;5.50;;;;;6.54;97145.80;;;;110746;1251;42821;-69
2022/03/03 08:31:57;;;;;;;14.30;6.60;;;;;7.00;97136.20;;;;110739;1250;41737;-69
2022/03/03 08:34:35;;;;;;;13.60;5.40;;;;;7.32;97135.80;;;;110471;1252;41683;-70
2022/03/03 08:37:09;;;;;;;16.00;6.80;;;;;7.72;97132.60;;;;110603;1251;42245;-69
2022/03/03 08:39:39;;;;;;;15.20;6.10;;;;;7.60;97126.20;;;;110664;1250;41643;-69
2022/03/03 08:42:09;;;;;;;;;;;;;7.70;97127.00;;;;110778;1250;41161;-67
2022/03/03 08:45:04;;;;;;;11.30;5.40;;;;;8.10;97124.00;;;;110801;1251;40744;-72
2022/03/03 08:47:34;;;;;;;12.50;5.40;;;;;8.52;97123.00;;;;110823;1250;41172;-67
2022/03/03 08:50:13;;;;;;;12.90;5.50;;;;;9.22;97115.80;;;;110650;1251;41185;-69
2022/03/03 08:52:56;;;;;;;12.80;5.60;;;;;10.62;97100.00;;;;110630;1250;41152;-70
2022/03/03 08:55:27;;;;;;;14.00;5.70;;;;;12.44;97088.40;;;;110590;1249;41147;-68
2022/03/03 08:57:58;;;;;;;11.10;5.60;;;;;14.22;97098.00;;;;110589;1249;41143;-68
2022/03/03 09:00:28;;;;;;;14.40;6.30;;;;;14.88;97087.40;;;;110615;1250;41188;-69
2022/03/03 09:02:59;;;;;;;14.70;6.80;;;;;13.38;97081.80;;;;110701;1250;41147;-68
2022/03/03 09:05:29;;;;;;;12.20;6.20;;;;;10.88;97096.60;;;;110647;1250;41395;-69
2022/03/03 09:07:59;;;;;;;15.40;6.10;;;;;10.24;97106.20;;;;110644;1250;42071;-70
2022/03/03 09:10:29;;;;;;;12.10;6.00;;;;;10.40;97080.80;;;;110572;1251;41741;-70
2022/03/03 09:13:00;;;;;;;12.00;5.50;;;;;12.14;97074.00;;;;110703;1250;41247;-69
2022/03/03 09:15:30;;;;;;;;;;;;;13.64;97086.00;;;;110616;1250;41265;-68
2022/03/03 09:18:02;;;;;;;13.30;4.50;;;;;14.20;97070.00;;;;110787;1250;41863;-70
2022/03/03 09:20:33;;;;;;;10.30;4.90;;;;;16.62;97057.60;;;;110620;1250;41887;-68
2022/03/03 09:23:02;;;;;;;;;;;;;18.84;97046.60;;;;110660;1253;41221;-70
2022/03/03 09:25:36;;;;;;;11.70;4.60;;;;;19.88;97041.60;;;;110794;1251;41250;-70
2022/03/03 09:28:06;;;;;;;14.90;6.50;;;;;21.88;97039.40;;;;110918;1250;41152;-69
2022/03/03 09:30:37;;;;;;;12.10;5.50;;;;;17.82;97042.00;;;;110729;1249;41604;-66
2022/03/03 09:33:08;;;;;;;10.60;5.30;;;;;18.62;97054.80;;;;110571;1251;41153;-64
2022/03/03 09:35:38;;;;;;;12.40;4.90;;;;;17.54;97039.40;;;;110594;1250;41219;-70
2022/03/03 09:38:08;;;;;;;11.00;5.10;;;;;17.28;97055.40;;;;110533;1250;41272;-69
2022/03/03 09:40:38;;;;;;;10.10;4.80;;;;;17.98;97039.20;;;;110634;1250;41142;-70
2022/03/03 09:43:08;;;;;;;11.90;5.10;;;;;18.04;97040.80;;;;110690;1251;41261;-71
2022/03/03 09:45:38;;;;;;;9.80;4.50;;;;;19.58;97043.80;;;;110781;1250;41916;-70
2022/03/03 09:48:09;;;;;;;11.40;5.00;;;;;21.32;97027.80;;;;110688;1250;41131;-69
2022/03/03 09:50:39;;;;;;;;;;;;;21.96;97038.40;;;;110702;1249;41159;-71
2022/03/03 09:53:13;;;;;;;10.10;4.30;;;;;21.34;97022.40;;;;110836;1250;41300;-70
2022/03/03 09:55:44;;;;;;;9.80;4.00;;;;;22.52;97024.60;;;;110677;1250;41276;-64
2022/03/03 09:58:14;;;;;;;12.30;5.60;;;;;23.70;97028.20;;;;110628;1251;42938;-67
2022/03/03 10:00:44;;;;;;;13.00;5.80;;;;;22.30;97036.40;;;;110834;1250;41155;-68
2022/03/03 10:03:16;;;;;;;10.70;4.70;;;;;17.56;97045.60;;;;110785;1251;41179;-66
2022/03/03 10:05:50;;;;;;;8.50;3.70;;;;;19.42;97027.60;;;;110797;1248;41606;-67
2022/03/03 10:08:23;;;;;;;10.20;4.80;;;;;19.96;97014.20;;;;110619;1250;42403;-66
2022/03/03 10:10:57;;;;;;;12.00;6.30;;;;;20.76;97011.80;;;;110726;1251;41617;-67
2022/03/03 10:13:27;;;;;;;12.70;6.30;;;;;16.52;97025.20;;;;111020;1250;41939;-66
2022/03/03 10:16:01;;;;;;;11.10;4.90;;;;;14.46;97043.80;;;;110937;1250;41136;-67
2022/03/03 10:18:30;;;;;;;12.20;5.70;;;;;14.42;97027.60;;;;110911;1252;41631;-69
2022/03/03 10:21:02;;;;;;;13.60;5.00;;;;;13.72;97046.20;;;;110753;1250;41357;-69
2022/03/03 10:23:36;;;;;;;9.90;4.20;;;;;14.44;97031.20;;;;110602;1252;41173;-71
2022/03/03 10:26:08;;;;;;;9.80;4.00;;;;;18.02;97016.40;;;;110642;1250;41274;-73
2022/03/03 10:28:38;;;;;;;8.80;3.90;;;;;21.34;97014.60;;;;110641;1250;41138;-72
2022/03/03 10:31:09;;;;;;;10.40;4.40;;;;;21.58;97024.20;;;;110921;1250;41267;-70
2022/03/03 10:33:39;;;;;;;;;;;;;19.80;97028.40;;;;110755;1252;41707;-70
2022/03/03 10:36:17;;;;;;;9.70;4.20;;;;;19.36;96998.60;;;;110843;1250;41173;-70
2022/03/03 10:38:55;;;;;;;8.80;4.10;;;;;20.02;97009.60;;;;110920;1250;41162;-70
2022/03/03 10:41:39;;;;;;;8.60;3.80;;;;;19.30;97020.00;;;;110505;1252;42015;-70
2022/03/03 10:44:21;;;;;;;10.70;4.80;;;;;18.78;97024.60;;;;110606;1252;41943;-69
2022/03/03 10:47:12;;;;;;;12.00;4.60;;;;;18.14;97020.00;;;;110720;1250;41758;-70
2022/03/03 10:49:47;;;;;;;12.70;5.30;;;;;17.06;97024.20;;;;110685;1250;41157;-71
2022/03/03 10:52:16;;;;;;;9.40;4.80;;;;;13.06;97033.20;;;;110643;1252;41610;-69
2022/03/03 10:55:10;;;;;;;11.30;3.80;;;;;10.80;97038.40;;;;110632;1250;42388;-69
2022/03/03 10:57:40;;;;;;;9.10;4.00;;;;;11.68;97029.00;;;;110563;1252;41607;-70
2022/03/03 11:00:18;;;;;;;8.70;3.60;;;;;11.42;97035.40;;;;110781;1250;41338;-70
2022/03/03 11:02:52;;;;;;;10.40;4.60;;;;;12.50;97025.20;;;;110689;1250;41608;-69
2022/03/03 11:05:25;;;;;;;7.40;3.00;;;;;14.72;96988.20;;;;110469;1250;41152;-69
2022/03/03 11:07:56;;;;;;;9.70;3.50;;;;;17.40;97001.00;;;;110407;1252;41454;-68
2022/03/03 11:10:29;;;;;;;9.40;3.60;;;;;19.30;96991.60;;;;110680;1252;41655;-71
2022/03/03 11:12:58;;;;;;;8.00;3.50;;;;;19.32;96992.40;;;;110629;1250;41268;-70
2022/03/03 11:15:32;;;;;;;11.00;3.80;;;;;18.28;96995.20;;;;110751;1250;41149;-69
2022/03/03 11:18:01;;;;;;;12.00;3.80;;;;;17.92;96996.40;;;;110694;1252;41306;-70
2022/03/03 11:20:30;;;;;;;11.40;4.80;;;;;17.40;96984.60;;;;110720;1252;43175;-72
2022/03/03 11:22:59;;;;;;;11.00;4.90;;;;;17.28;96961.00;;;;110688;1252;41490;-70
2022/03/03 11:25:35;;;;;;;8.30;3.70;;;;;18.10;96955.00;;;;110579;1252;41268;-67
2022/03/03 11:28:07;;;;;;;10.80;4.00;;;;;21.20;96971.80;;;;110564;1250;41133;-69
2022/03/03 11:30:37;;;;;;;8.10;3.30;;;;;21.16;96976.00;;;;110612;1252;41140;-71
2022/03/03 11:33:26;;;;;;;8.30;3.30;;;;;20.26;96975.80;;;;110787;1250;41637;-68
2022/03/03 11:36:03;;;;;;;7.10;2.60;;;;;21.08;96948.00;;;;110968;1251;41902;-66
2022/03/03 11:38:46;;;;;;;9.30;3.60;;;;;24.72;96935.60;;;;110815;1252;41159;-70
2022/03/03 11:41:16;;;;;;;8.50;3.60;;;;;25.94;96922.80;;;;110774;1251;41314;-73
2022/03/03 11:43:48;;;;;;;7.10;3.00;;;;;26.10;96949.20;;;;110617;1252;41621;-71
2022/03/03 11:46:49;;;;;;;8.20;2.90;;;;;24.60;96949.00;;;;110852;1251;41815;-71
2022/03/03 11:49:19;;;;;;;;;;;;;23.58;96929.20;;;;110734;1252;42176;-72
2022/03/03 11:51:49;;;;;;;7.50;2.90;;;;;22.94;96955.00;;;;110814;1250;41375;-72
2022/03/03 11:54:29;;;;;;;11.90;3.90;;;;;22.16;96928.00;;;;110716;1250;41270;-71
2022/03/03 11:57:04;;;;;;;7.80;2.90;;;;;20.04;96930.80;;;;110636;1251;41467;-71
2022/03/03 11:59:35;;;;;;;7.40;2.80;;;;;22.06;96936.80;;;;110852;1250;41423;-71
2022/03/03 12:02:04;;;;;;;6.40;2.70;;;;;24.44;96927.20;;;;110815;1250;41152;-70
2022/03/03 12:04:37;;;;;;;7.80;2.90;;;;;24.86;96947.00;;;;110837;1250;41155;-71
2022/03/03 12:07:26;;;;;;;6.20;2.60;;;;;23.18;96944.20;;;;110751;1249;42059;-67
2022/03/03 12:09:56;;;;;;;10.00;3.10;;;;;22.00;96951.00;;;;110784;1249;41203;-72
2022/03/03 12:12:32;;;;;;;8.20;3.10;;;;;20.84;96947.60;;;;111000;1250;41437;-71
2022/03/03 12:15:03;;;;;;;7.70;3.20;;;;;21.30;96918.20;;;;110756;1251;41133;-74
2022/03/03 12:17:40;;;;;;;7.50;3.20;;;;;19.12;96927.80;;;;110846;1250;41152;-71
2022/03/03 12:20:29;;;;;;;10.40;3.10;;;;;19.62;96944.40;;;;110926;1250;41521;-71
2022/03/03 12:23:30;;;;;;;6.40;2.60;;;;;20.18;96948.00;;;;111012;1249;41207;-69
2022/03/03 12:26:02;;;;;;;8.10;3.20;;;;;18.78;96949.20;;;;110748;1251;41163;-69